createdAt,value
2022-11-10T00:02:39.950Z,27.20
2022-11-10T00:05:44.322Z,26.37
2022-11-10T00:08:47.379Z,25.90
2022-11-10T00:11:50.348Z,25.97
2022-11-10T00:15:10.799Z,26.37
2022-11-10T00:18:13.750Z,25.63
2022-11-10T00:21:20.332Z,24.37
2022-11-10T00:24:24.137Z,25.13
2022-11-10T00:27:27.181Z,25.43
2022-11-10T00:30:30.205Z,24.60
2022-11-10T00:33:36.019Z,24.67
2022-11-10T00:36:40.789Z,24.93
2022-11-10T00:39:44.100Z,23.90
2022-11-10T00:42:47.179Z,24.93
2022-11-10T00:45:50.144Z,24.30
2022-11-10T00:48:53.219Z,23.57
2022-11-10T00:51:57.642Z,24.57
2022-11-10T00:55:00.632Z,24.23
2022-11-10T00:58:03.635Z,24.77
2022-11-10T01:01:07.213Z,24.03
2022-11-10T01:04:10.405Z,24.33
2022-11-10T01:07:15.234Z,24.33
2022-11-10T01:10:18.380Z,24.20
2022-11-10T01:13:21.736Z,23.17
2022-11-10T01:16:26.695Z,22.53
2022-11-10T01:19:29.669Z,22.43
2022-11-10T01:22:34.469Z,23.27
2022-11-10T01:25:37.435Z,22.97
2022-11-10T01:28:40.415Z,22.67
2022-11-10T01:31:43.422Z,22.80
2022-11-10T01:34:46.426Z,22.43
2022-11-10T01:37:52.678Z,22.77
2022-11-10T01:40:56.067Z,22.47
2022-11-10T01:44:18.339Z,21.27
2022-11-10T01:47:21.366Z,21.97
2022-11-10T01:50:29.806Z,21.40
2022-11-10T01:53:38.061Z,21.50
2022-11-10T01:56:44.655Z,21.80
2022-11-10T01:59:50.329Z,20.87
2022-11-10T02:02:59.484Z,21.80
2022-11-10T02:06:02.889Z,22.27
2022-11-10T02:09:07.938Z,21.90
2022-11-10T02:12:10.948Z,21.80
2022-11-10T02:15:17.345Z,21.47
2022-11-10T02:18:20.489Z,21.13
2022-11-10T02:21:25.077Z,21.00
2022-11-10T02:24:28.069Z,20.37
2022-11-10T02:27:31.862Z,20.80
2022-11-10T02:30:34.969Z,20.80
2022-11-10T02:33:38.406Z,20.60
2022-11-10T02:36:42.980Z,21.77
2022-11-10T02:39:46.025Z,20.90
2022-11-10T02:42:48.995Z,21.27
2022-11-10T02:45:51.992Z,21.47
2022-11-10T02:48:55.070Z,20.77
2022-11-10T02:51:59.543Z,20.80
2022-11-10T02:55:02.564Z,21.23
2022-11-10T02:58:05.922Z,20.40
2022-11-10T03:01:09.086Z,20.20
2022-11-10T03:04:12.067Z,20.97
2022-11-10T03:07:16.981Z,19.20
2022-11-10T03:10:20.212Z,20.20
2022-11-10T03:13:23.734Z,20.20
2022-11-10T03:16:26.901Z,18.63
2022-11-10T03:19:29.933Z,17.87
2022-11-10T03:22:34.396Z,19.00
2022-11-10T03:25:38.562Z,19.77
2022-11-10T03:28:41.648Z,19.43
2022-11-10T03:31:44.665Z,18.90
2022-11-10T03:34:47.633Z,18.73
2022-11-10T03:37:52.047Z,19.40
2022-11-10T03:41:18.054Z,18.20
2022-11-10T03:44:18.156Z,18.37
2022-11-10T03:47:21.255Z,18.10
2022-11-10T03:50:24.380Z,17.37
2022-11-10T03:53:28.931Z,17.90
2022-11-10T03:56:31.865Z,18.73
2022-11-10T03:59:34.919Z,17.33
2022-11-10T04:02:38.267Z,17.73
2022-11-10T04:05:58.676Z,16.30
2022-11-10T04:09:03.314Z,17.33
2022-11-10T04:12:25.125Z,17.40
2022-11-10T04:15:43.390Z,18.17
2022-11-10T04:18:46.353Z,17.17
2022-11-10T04:21:49.352Z,17.13
2022-11-10T04:24:53.821Z,16.47
2022-11-10T04:27:56.857Z,16.53
2022-11-10T04:30:59.833Z,16.80
2022-11-10T04:34:02.910Z,18.53
2022-11-10T04:37:05.857Z,20.17
2022-11-10T04:40:11.486Z,18.60
2022-11-10T04:43:14.542Z,18.30
2022-11-10T04:46:24.417Z,17.90
2022-11-10T04:49:27.593Z,18.70
2022-11-10T04:52:30.650Z,18.60
2022-11-10T04:55:35.010Z,20.20
2022-11-10T04:58:38.053Z,20.13
2022-11-10T05:01:41.080Z,21.70
2022-11-10T05:04:44.068Z,22.10
2022-11-10T05:07:48.927Z,22.77
2022-11-10T05:10:53.292Z,24.90
2022-11-10T05:13:56.381Z,21.83
2022-11-10T05:16:59.356Z,21.30
2022-11-10T05:20:03.305Z,20.40
2022-11-10T05:23:23.943Z,20.77
2022-11-10T05:26:28.698Z,20.03
2022-11-10T05:29:31.781Z,20.00
2022-11-10T05:32:34.909Z,20.40
2022-11-10T05:35:38.290Z,19.73
2022-11-10T05:38:43.664Z,19.00
2022-11-10T05:41:48.356Z,19.00
2022-11-10T05:44:51.308Z,18.80
2022-11-10T05:47:55.368Z,19.90
2022-11-10T05:50:58.325Z,19.37
2022-11-10T05:54:01.424Z,18.80
2022-11-10T05:57:05.870Z,20.27
2022-11-10T06:00:10.761Z,20.00
2022-11-10T06:03:16.028Z,19.40
2022-11-10T06:06:19.202Z,19.27
2022-11-10T06:09:22.194Z,21.10
2022-11-10T06:12:30.306Z,20.77
2022-11-10T06:15:33.973Z,20.10
2022-11-10T06:18:36.946Z,20.90
2022-11-10T06:21:40.061Z,20.50
2022-11-10T06:24:43.094Z,22.67
2022-11-10T06:27:47.479Z,21.43
2022-11-10T06:30:50.445Z,22.20
2022-11-10T06:33:53.489Z,22.97
2022-11-10T06:36:56.539Z,23.27
2022-11-10T06:39:59.738Z,25.23
2022-11-10T06:43:04.154Z,25.07
2022-11-10T06:46:07.162Z,25.07
2022-11-10T06:49:10.215Z,25.20
2022-11-10T06:52:13.174Z,26.60
2022-11-10T06:55:16.333Z,26.10
2022-11-10T06:58:20.714Z,23.60
2022-11-10T07:01:26.749Z,25.60
2022-11-10T07:04:30.297Z,24.53
2022-11-10T07:07:33.319Z,24.10
2022-11-10T07:10:37.300Z,27.20
2022-11-10T07:13:42.013Z,29.00
2022-11-10T07:16:45.088Z,30.70
2022-11-10T07:19:48.126Z,29.60
2022-11-10T07:22:51.195Z,32.20
2022-11-10T07:25:54.342Z,31.77
2022-11-10T07:28:58.886Z,31.97
2022-11-10T07:32:02.039Z,32.40
2022-11-10T07:35:05.835Z,32.70
2022-11-10T07:38:11.402Z,33.37
2022-11-10T07:41:14.511Z,32.90
2022-11-10T07:44:19.121Z,33.17
2022-11-10T07:47:22.146Z,33.03
2022-11-10T07:50:25.207Z,34.03
2022-11-10T07:53:28.528Z,33.13
2022-11-10T07:56:31.655Z,33.53
2022-11-10T07:59:36.208Z,32.40
2022-11-10T08:02:39.342Z,31.03
2022-11-10T08:05:42.920Z,29.73
2022-11-10T08:08:47.519Z,27.63
2022-11-10T08:11:50.588Z,27.10
2022-11-10T08:14:55.118Z,25.17
2022-11-10T08:18:01.660Z,27.47
2022-11-10T08:21:05.809Z,26.60
2022-11-10T08:24:09.358Z,27.63
2022-11-10T08:27:12.513Z,26.83
2022-11-10T08:30:17.854Z,25.80
2022-11-10T08:33:22.947Z,26.63
2022-11-10T08:36:26.376Z,26.17
2022-11-10T08:39:39.019Z,25.10
2022-11-10T08:42:42.647Z,26.63
2022-11-10T08:45:47.608Z,27.87
2022-11-10T08:48:50.742Z,25.80
2022-11-10T08:51:54.220Z,26.50
2022-11-10T08:54:57.298Z,25.87
2022-11-10T08:58:01.276Z,26.10
2022-11-10T09:01:09.473Z,26.70
2022-11-10T09:04:15.865Z,26.70
2022-11-10T09:07:19.007Z,25.60
2022-11-10T09:10:22.148Z,25.30
2022-11-10T09:13:29.980Z,24.73
2022-11-10T09:16:34.830Z,24.23
2022-11-10T09:19:38.014Z,23.70
2022-11-10T09:22:41.118Z,24.07
2022-11-10T09:25:49.800Z,24.90
2022-11-10T09:28:53.087Z,30.53
2022-11-10T09:31:58.371Z,94.40
2022-11-10T09:35:02.062Z,145.47
2022-11-10T09:38:05.894Z,138.00
2022-11-10T09:41:12.105Z,116.53
2022-11-10T09:44:20.775Z,102.97
2022-11-10T09:47:55.862Z,94.10
2022-11-10T09:50:58.239Z,89.47
2022-11-10T09:54:05.592Z,85.33
2022-11-10T09:57:14.060Z,79.13
2022-11-10T10:00:18.882Z,76.07
2022-11-10T10:03:30.608Z,73.70
2022-11-10T10:07:09.578Z,68.73
2022-11-10T10:10:17.678Z,65.20
2022-11-10T10:13:28.986Z,63.80
2022-11-10T10:16:38.548Z,58.37
2022-11-10T10:19:51.146Z,59.47
2022-11-10T10:23:04.254Z,55.27
2022-11-10T10:26:14.442Z,53.40
2022-11-10T10:29:23.194Z,52.00
2022-11-10T10:32:28.147Z,49.10
2022-11-10T10:35:39.010Z,49.17
2022-11-10T10:38:47.603Z,48.60
2022-11-10T10:41:50.584Z,46.77
2022-11-10T10:45:16.504Z,45.50
2022-11-10T10:48:28.477Z,44.17
2022-11-10T10:51:33.281Z,43.57
2022-11-10T10:54:38.128Z,42.27
2022-11-10T10:57:52.086Z,39.93
2022-11-10T11:01:02.829Z,40.70
2022-11-10T11:04:26.394Z,39.10
2022-11-10T11:07:30.779Z,37.93
2022-11-10T11:10:36.209Z,36.97
2022-11-10T11:13:39.261Z,36.43
2022-11-10T11:16:49.848Z,35.00
2022-11-10T11:19:59.909Z,35.00
2022-11-10T11:23:16.168Z,33.73
2022-11-10T11:26:23.604Z,33.77
2022-11-10T11:29:53.030Z,32.43
2022-11-10T11:33:17.067Z,31.37
2022-11-10T11:36:31.545Z,30.70
2022-11-10T11:39:49.711Z,31.40
2022-11-10T11:43:03.957Z,30.40
2022-11-10T11:46:17.786Z,29.67
2022-11-10T11:49:53.872Z,29.43
2022-11-10T11:53:04.871Z,30.40
2022-11-10T11:56:21.031Z,29.40
2022-11-10T11:59:35.651Z,28.23
2022-11-10T12:03:08.660Z,28.60
2022-11-10T12:06:24.438Z,28.47
2022-11-10T12:09:38.483Z,27.60
2022-11-10T12:13:06.686Z,27.23
2022-11-10T12:16:19.665Z,28.17
2022-11-10T12:19:31.925Z,26.07
2022-11-10T12:22:42.258Z,26.57
2022-11-10T12:25:54.762Z,26.10
2022-11-10T12:29:06.107Z,25.67
2022-11-10T12:32:17.243Z,25.90
2022-11-10T12:35:23.475Z,26.03
2022-11-10T12:38:36.905Z,24.47
2022-11-10T12:41:45.521Z,24.40
2022-11-10T12:45:02.421Z,24.37
2022-11-10T12:48:06.587Z,23.90
2022-11-10T12:51:15.037Z,24.17
2022-11-10T12:54:20.622Z,23.90
2022-11-10T12:57:27.713Z,25.20
2022-11-10T13:00:33.702Z,23.30
2022-11-10T13:03:39.151Z,24.50
2022-11-10T13:06:50.129Z,23.83
2022-11-10T13:09:53.224Z,22.90
2022-11-10T13:13:08.583Z,22.87
2022-11-10T13:16:54.272Z,22.40
2022-11-10T13:20:09.496Z,22.83
2022-11-10T13:23:25.841Z,21.53
2022-11-10T13:26:49.664Z,21.93
2022-11-10T13:29:58.208Z,22.37
2022-11-10T13:36:43.459Z,21.03
2022-11-10T13:39:46.758Z,20.87
2022-11-10T13:43:23.748Z,21.43
2022-11-10T13:46:36.625Z,20.60
2022-11-10T13:49:55.798Z,20.80
2022-11-10T13:53:17.141Z,19.83
2022-11-10T13:56:36.355Z,20.13
2022-11-10T13:59:49.007Z,21.10
2022-11-10T14:02:55.093Z,20.77
2022-11-10T14:06:06.137Z,20.60
2022-11-10T14:09:24.614Z,20.50
2022-11-10T14:12:31.904Z,20.07
2022-11-10T14:15:41.083Z,19.30
2022-11-10T14:18:50.276Z,19.23
2022-11-10T14:21:58.542Z,19.27
2022-11-10T14:25:07.547Z,19.90
2022-11-10T14:28:28.019Z,20.17
2022-11-10T14:31:31.049Z,20.53
2022-11-10T14:34:44.468Z,19.10
2022-11-10T14:37:47.556Z,20.00
2022-11-10T14:40:55.030Z,20.20
2022-11-10T14:44:02.259Z,19.53
2022-11-10T14:47:16.264Z,19.13
2022-11-10T14:50:23.013Z,18.50
2022-11-10T14:53:30.380Z,19.87
2022-11-10T14:56:38.899Z,19.10
2022-11-10T14:59:41.947Z,17.93
2022-11-10T15:02:45.075Z,19.87
2022-11-10T15:05:49.645Z,18.40
2022-11-10T15:08:52.738Z,18.43
2022-11-10T15:12:09.466Z,18.43
2022-11-10T15:15:24.086Z,18.97
2022-11-10T15:18:30.934Z,18.80
2022-11-10T15:21:34.381Z,18.90
2022-11-10T15:24:37.513Z,19.00
2022-11-10T15:27:43.480Z,19.03
2022-11-10T15:30:53.581Z,18.10
2022-11-10T15:33:58.213Z,19.40
2022-11-10T15:37:31.013Z,27.70
2022-11-10T15:40:37.424Z,32.13
2022-11-10T15:43:42.340Z,34.60
2022-11-10T15:46:45.908Z,36.60
2022-11-10T15:49:49.110Z,34.67
2022-11-10T15:52:52.283Z,36.40
2022-11-10T15:55:55.496Z,37.70
2022-11-10T15:59:02.359Z,37.60
2022-11-10T16:02:17.571Z,36.53
2022-11-10T16:05:20.577Z,37.47
2022-11-10T16:08:24.391Z,41.17
2022-11-10T16:11:28.367Z,40.00
2022-11-10T16:14:32.830Z,39.60
2022-11-10T16:17:36.358Z,39.10
2022-11-10T16:20:39.487Z,37.20
2022-11-10T16:23:42.749Z,34.03
2022-11-10T16:26:46.245Z,31.27
2022-11-10T16:29:50.875Z,30.27
2022-11-10T16:32:54.398Z,28.90
2022-11-10T16:35:57.836Z,28.03
2022-11-10T16:39:03.838Z,27.50
2022-11-10T16:42:06.897Z,27.40
2022-11-10T16:45:16.997Z,29.03
2022-11-10T16:48:23.772Z,26.80
2022-11-10T16:51:29.801Z,27.50
2022-11-10T16:54:33.265Z,28.07
2022-11-10T16:57:39.933Z,27.10
2022-11-10T17:00:45.538Z,26.40
2022-11-10T17:03:51.297Z,24.80
2022-11-10T17:06:54.316Z,25.67
2022-11-10T17:09:58.106Z,25.30
2022-11-10T17:13:01.101Z,25.90
2022-11-10T17:16:21.815Z,24.80
2022-11-10T17:19:27.105Z,24.27
2022-11-10T17:22:34.075Z,25.70
2022-11-10T17:25:37.722Z,26.70
2022-11-10T17:28:40.750Z,23.50
2022-11-10T17:31:45.355Z,24.90
2022-11-10T17:34:48.390Z,25.20
2022-11-10T17:37:55.078Z,24.83
2022-11-10T17:40:58.425Z,23.80
2022-11-10T17:44:01.426Z,24.03
2022-11-10T17:47:06.086Z,24.27
2022-11-10T17:50:09.694Z,23.83
2022-11-10T17:53:20.154Z,22.40
2022-11-10T17:56:23.393Z,20.97
2022-11-10T17:59:26.399Z,19.67
2022-11-10T18:02:30.928Z,20.00
2022-11-10T18:05:33.925Z,20.10
2022-11-10T18:08:37.673Z,19.17
2022-11-10T18:11:40.674Z,19.23
2022-11-10T18:14:43.738Z,17.37
2022-11-10T18:17:48.142Z,18.57
2022-11-10T18:20:51.137Z,17.87
2022-11-10T18:23:54.189Z,17.60
2022-11-10T18:26:57.212Z,19.70
2022-11-10T18:30:00.236Z,20.03
2022-11-10T18:33:05.890Z,18.97
2022-11-10T18:36:09.452Z,17.67
2022-11-10T18:39:12.526Z,18.30
2022-11-10T18:42:15.825Z,18.70
2022-11-10T18:45:18.832Z,17.20
2022-11-10T18:48:28.373Z,15.53
2022-11-10T18:51:33.448Z,15.07
2022-11-10T18:54:36.525Z,14.83
2022-11-10T18:57:39.601Z,13.90
2022-11-10T19:00:42.625Z,14.10
2022-11-10T19:03:47.329Z,12.83
2022-11-10T19:06:50.420Z,13.63
2022-11-10T19:09:54.108Z,13.50
2022-11-10T19:12:57.364Z,14.33
2022-11-10T19:16:07.409Z,15.00
2022-11-10T19:19:12.985Z,14.33
2022-11-10T19:22:16.161Z,15.57
2022-11-10T19:25:19.218Z,15.50
2022-11-10T19:28:22.611Z,14.53
2022-11-10T19:31:27.406Z,13.67
2022-11-10T19:34:31.875Z,14.07
2022-11-10T19:37:35.334Z,12.90
2022-11-10T19:40:40.025Z,13.77
2022-11-10T19:43:47.246Z,13.13
2022-11-10T19:46:50.746Z,13.53
2022-11-10T19:49:55.381Z,13.53
2022-11-10T19:52:58.627Z,15.87
2022-11-10T19:56:03.086Z,16.63
2022-11-10T19:59:06.923Z,17.30
2022-11-10T20:02:13.531Z,18.70
2022-11-10T20:05:18.507Z,19.60
2022-11-10T20:08:21.625Z,19.60
2022-11-10T20:11:27.169Z,18.97
2022-11-10T20:14:30.335Z,19.93
2022-11-10T20:17:33.554Z,19.30
2022-11-10T20:20:40.171Z,19.03
2022-11-10T20:23:43.616Z,19.53
2022-11-10T20:26:47.016Z,18.10
2022-11-10T20:29:50.154Z,19.37
2022-11-10T20:32:53.494Z,19.97
2022-11-10T20:36:07.491Z,19.00
2022-11-10T20:39:11.114Z,17.50
2022-11-10T20:42:15.081Z,18.00
2022-11-10T20:45:18.662Z,18.87
2022-11-10T20:48:21.774Z,18.13
2022-11-10T20:51:26.505Z,18.37
2022-11-10T20:54:30.523Z,17.03
2022-11-10T20:57:34.417Z,17.23
2022-11-10T21:00:38.063Z,17.40
2022-11-10T21:03:41.573Z,17.30
2022-11-10T21:06:46.453Z,30.70
2022-11-10T21:09:49.812Z,30.70
2022-11-10T21:12:53.147Z,28.23
2022-11-10T21:15:58.805Z,29.47
2022-11-10T21:19:02.259Z,29.40
2022-11-10T21:22:09.939Z,29.27
2022-11-10T21:25:13.667Z,30.97
2022-11-10T21:28:16.773Z,28.60
2022-11-10T21:31:19.968Z,27.97
2022-11-10T21:34:23.014Z,30.00
2022-11-10T21:37:27.688Z,30.37
2022-11-10T21:40:31.507Z,29.30
2022-11-10T21:43:35.849Z,30.47
2022-11-10T21:46:39.012Z,31.10
2022-11-10T21:49:42.770Z,31.43
2022-11-10T21:52:47.294Z,31.93
2022-11-10T21:55:50.386Z,31.80
2022-11-10T21:58:53.382Z,31.67
2022-11-10T22:01:56.485Z,32.33
2022-11-10T22:05:00.134Z,31.70
2022-11-10T22:08:05.099Z,31.33
2022-11-10T22:11:30.870Z,33.70
2022-11-10T22:14:51.192Z,31.20
2022-11-10T22:18:11.902Z,33.17
2022-11-10T22:21:15.266Z,33.33
2022-11-10T22:24:26.762Z,32.73
2022-11-10T22:27:29.839Z,31.93
2022-11-10T22:30:33.322Z,33.03
2022-11-10T22:33:37.877Z,32.10
2022-11-10T22:36:40.942Z,32.90
2022-11-10T22:40:03.186Z,33.93
2022-11-10T22:43:24.370Z,34.80
2022-11-10T22:46:27.703Z,35.43
2022-11-10T22:49:30.884Z,37.03
2022-11-10T22:52:33.975Z,36.77
2022-11-10T22:55:38.715Z,34.77
2022-11-10T22:58:41.825Z,35.50
2022-11-10T23:01:45.604Z,35.80
2022-11-10T23:04:48.719Z,36.17
2022-11-10T23:07:51.751Z,39.07
2022-11-10T23:11:01.011Z,37.80
2022-11-10T23:14:04.598Z,37.13
2022-11-10T23:17:07.661Z,37.67
2022-11-10T23:20:11.973Z,37.53
2022-11-10T23:23:15.094Z,36.80
2022-11-10T23:29:41.764Z,36.60
2022-11-10T23:32:44.503Z,37.47
2022-11-10T23:35:47.631Z,39.13
2022-11-10T23:38:51.269Z,36.80
2022-11-10T23:41:55.799Z,36.53
2022-11-10T23:44:58.924Z,37.17
2022-11-10T23:48:05.741Z,36.03
2022-11-10T23:51:12.643Z,36.53
2022-11-10T23:54:15.854Z,36.70
2022-11-10T23:57:20.341Z,38.27
